Time;durP1;ratioP1;P1;durP2;ratioP2;P2;SDS_P1;SDS_P2;PMS_P1;PMS_P2;Temp;Humidity;BMP_temperature;BMP_pressure;BME280_temperature;BME280_humidity;BME280_pressure;Samples;Min_cycle;Max_cycle;Signal;HPM_P1;HPM_P2
2021/10/20 00:00:14;;;;;;;;;;;19.90;60.40;;;;;;5011275;28;19926;-57
2021/10/20 00:02:41;;;;;;;;;;;19.90;60.40;;;;;;5046166;28;19980;-57
2021/10/20 00:05:09;;;;;;;;;;;19.90;60.40;;;;;;5003671;28;19967;-58
2021/10/20 00:07:37;;;;;;;;;;;19.90;60.40;;;;;;5004572;28;20331;-57
2021/10/20 00:10:05;;;;;;;;;;;19.90;60.40;;;;;;5014719;28;19926;-58
2021/10/20 00:12:32;;;;;;;;;;;19.90;60.40;;;;;;5014647;28;19936;-58
2021/10/20 00:15:00;;;;;;;;;;;19.90;60.40;;;;;;5006961;28;19941;-57
2021/10/20 00:17:27;;;;;;;;;;;19.90;60.40;;;;;;5003714;28;19933;-58
2021/10/20 00:19:58;;;;;;;;;;;19.90;60.40;;;;;;5004453;28;20337;-58
2021/10/20 00:22:25;;;;;;;;;;;19.90;60.30;;;;;;5014488;28;19929;-57
2021/10/20 00:24:52;;;;;;;;;;;19.90;60.30;;;;;;5045322;28;19988;-58
2021/10/20 00:27:20;;;;;;;;;;;19.90;60.30;;;;;;5013914;28;19926;-57
2021/10/20 00:29:47;;;;;;;;;;;19.90;60.30;;;;;;5014069;28;20004;-58
2021/10/20 00:32:14;;;;;;;;;;;19.90;60.30;;;;;;5014285;28;20263;-58
2021/10/20 00:34:41;;;;;;;;;;;19.90;60.30;;;;;;5013844;28;19999;-58
2021/10/20 00:37:08;;;;;;;;;;;19.90;60.30;;;;;;5028655;28;19976;-58
2021/10/20 00:39:35;;;;;;;;;;;19.90;60.30;;;;;;5014292;28;19925;-59
2021/10/20 00:42:02;;;;;;;;;;;19.90;60.30;;;;;;5013398;28;19976;-57
2021/10/20 00:44:29;;;;;;;;;;;19.90;60.30;;;;;;4995892;28;19930;-58
2021/10/20 00:46:56;;;;;;;;;;;19.90;60.30;;;;;;4997158;28;19976;-58
2021/10/20 00:49:23;;;;;;;;;;;19.90;60.30;;;;;;5013015;28;19925;-57
2021/10/20 00:51:50;;;;;;;;;;;19.80;60.20;;;;;;5012688;28;19927;-57
2021/10/20 00:54:17;;;;;;;;;;;19.90;60.30;;;;;;5012085;28;19933;-58
2021/10/20 00:56:44;;;;;;;;;;;19.90;60.30;;;;;;5000737;28;19966;-58
2021/10/20 00:59:11;;;;;;;;;;;19.80;60.20;;;;;;4997421;28;20378;-57
2021/10/20 01:01:38;;;;;;;;;;;19.90;60.20;;;;;;4997374;28;20433;-58
2021/10/20 01:04:05;;;;;;;;;;;19.80;60.10;;;;;;4997742;28;19949;-57
2021/10/20 01:06:34;;;;;;;;;;;19.90;60.30;;;;;;5005075;28;19929;-58
2021/10/20 01:09:01;;;;;;;;;;;19.90;60.20;;;;;;5005305;28;20337;-57
2021/10/20 01:11:28;;;;;;;;;;;19.80;60.10;;;;;;5004391;28;19959;-57
2021/10/20 01:13:55;;;;;;;;;;;19.90;60.20;;;;;;5006893;28;19933;-57
2021/10/20 01:16:22;;;;;;;;;;;19.80;60.10;;;;;;4997249;28;20008;-57
2021/10/20 01:18:49;;;;;;;;;;;19.80;60.20;;;;;;5002283;28;20385;-57
2021/10/20 01:21:17;;;;;;;;;;;19.80;60.10;;;;;;5012925;28;19971;-57
2021/10/20 01:23:45;;;;;;;;;;;19.80;60.10;;;;;;5013359;28;19925;-57
2021/10/20 01:26:13;;;;;;;;;;;19.80;60.10;;;;;;5012983;28;19925;-58
2021/10/20 01:28:40;;;;;;;;;;;19.90;60.20;;;;;;5013255;28;19925;-57
2021/10/20 01:31:06;;;;;;;;;;;19.80;60.10;;;;;;5011739;28;19929;-58
2021/10/20 01:33:34;;;;;;;;;;;19.80;60.10;;;;;;5012911;28;19972;-58
2021/10/20 01:36:01;;;;;;;;;;;19.90;60.20;;;;;;5012759;28;19925;-57
2021/10/20 01:38:28;;;;;;;;;;;19.80;60.10;;;;;;5011857;28;20317;-56
2021/10/20 01:40:55;;;;;;;;;;;19.80;60.10;;;;;;4995424;28;19961;-59
2021/10/20 01:43:22;;;;;;;;;;;19.80;60.10;;;;;;5006918;28;19926;-57
2021/10/20 01:45:49;;;;;;;;;;;19.80;60.10;;;;;;5012549;28;19933;-55
2021/10/20 01:48:16;;;;;;;;;;;19.80;60.10;;;;;;4998321;28;20333;-57
2021/10/20 01:50:43;;;;;;;;;;;19.80;60.10;;;;;;5010806;28;19933;-57
2021/10/20 01:53:10;;;;;;;;;;;19.80;60.10;;;;;;5009469;28;19952;-57
2021/10/20 01:55:37;;;;;;;;;;;19.80;60.00;;;;;;5012524;28;19933;-56
2021/10/20 01:58:04;;;;;;;;;;;19.80;60.00;;;;;;5001804;28;19926;-57
2021/10/20 02:00:31;;;;;;;;;;;19.80;60.00;;;;;;5006349;28;20016;-58
2021/10/20 02:02:58;;;;;;;;;;;19.80;60.00;;;;;;5003913;28;19965;-57
2021/10/20 02:05:25;;;;;;;;;;;19.80;60.00;;;;;;4995833;28;20012;-57
2021/10/20 02:07:52;;;;;;;;;;;19.80;60.00;;;;;;5002441;28;19979;-58
2021/10/20 02:10:19;;;;;;;;;;;19.80;60.00;;;;;;5012419;28;19972;-57
2021/10/20 02:12:46;;;;;;;;;;;19.80;60.00;;;;;;5007159;28;19937;-58
2021/10/20 02:15:13;;;;;;;;;;;19.80;60.00;;;;;;5002839;28;19929;-56
2021/10/20 02:17:40;;;;;;;;;;;19.80;60.00;;;;;;5009202;28;20304;-56
2021/10/20 02:20:11;;;;;;;;;;;19.80;60.00;;;;;;4998725;28;19979;-56
2021/10/20 02:22:39;;;;;;;;;;;19.80;60.00;;;;;;5012049;28;19929;-57
2021/10/20 02:25:06;;;;;;;;;;;19.80;60.00;;;;;;5011095;28;19965;-57
2021/10/20 02:27:33;;;;;;;;;;;19.80;60.00;;;;;;5011567;28;20407;-57
2021/10/20 02:30:00;;;;;;;;;;;19.80;60.00;;;;;;4995235;28;19970;-58
2021/10/20 02:32:27;;;;;;;;;;;19.80;60.00;;;;;;5012298;28;20024;-57
2021/10/20 02:34:54;;;;;;;;;;;19.80;60.00;;;;;;5012414;28;20548;-57
2021/10/20 02:37:21;;;;;;;;;;;19.80;60.00;;;;;;4995139;28;19926;-58
2021/10/20 02:39:48;;;;;;;;;;;19.80;60.00;;;;;;4995971;28;19933;-58
2021/10/20 02:42:15;;;;;;;;;;;19.80;60.00;;;;;;4996262;28;20362;-57
2021/10/20 02:44:42;;;;;;;;;;;19.80;60.00;;;;;;4995672;28;20398;-58
2021/10/20 02:47:09;;;;;;;;;;;19.80;60.00;;;;;;5009226;28;20313;-57
2021/10/20 02:49:36;;;;;;;;;;;19.80;60.00;;;;;;5010397;28;19984;-57
2021/10/20 02:52:03;;;;;;;;;;;19.80;60.00;;;;;;5010944;28;19926;-58
2021/10/20 02:54:30;;;;;;;;;;;19.80;60.00;;;;;;5001265;28;19930;-58
2021/10/20 02:56:57;;;;;;;;;;;19.80;60.00;;;;;;5003142;28;19941;-57
2021/10/20 02:59:24;;;;;;;;;;;19.80;60.00;;;;;;5003600;28;19976;-58
2021/10/20 03:01:51;;;;;;;;;;;19.80;60.00;;;;;;5003313;28;19925;-58
2021/10/20 03:04:18;;;;;;;;;;;19.80;60.00;;;;;;5005279;28;20017;-56
2021/10/20 03:06:48;;;;;;;;;;;19.80;60.00;;;;;;4995734;28;19926;-58
2021/10/20 03:09:24;;;;;;;;;;;19.80;60.00;;;;;;5005791;28;19926;-57
2021/10/20 03:11:50;;;;;;;;;;;19.80;60.00;;;;;;5012091;28;19925;-58
2021/10/20 03:14:17;;;;;;;;;;;19.80;60.00;;;;;;5011004;28;19933;-57
2021/10/20 03:16:44;;;;;;;;;;;19.80;60.00;;;;;;5012809;28;19926;-58
2021/10/20 03:19:11;;;;;;;;;;;19.80;59.90;;;;;;5014742;28;19926;-58
2021/10/20 03:21:38;;;;;;;;;;;19.80;59.90;;;;;;5015360;28;19972;-59
2021/10/20 03:24:07;;;;;;;;;;;19.80;59.90;;;;;;5015434;28;19940;-56
2021/10/20 03:26:34;;;;;;;;;;;19.80;59.90;;;;;;4999205;28;19925;-57
2021/10/20 03:29:01;;;;;;;;;;;19.80;59.90;;;;;;4998558;28;19925;-58
2021/10/20 03:31:28;;;;;;;;;;;19.80;59.90;;;;;;5015500;28;19926;-58
2021/10/20 03:33:55;;;;;;;;;;;19.80;59.90;;;;;;5046252;28;19929;-57
2021/10/20 03:36:22;;;;;;;;;;;19.80;59.90;;;;;;5014483;28;19975;-58
2021/10/20 03:38:49;;;;;;;;;;;19.80;59.90;;;;;;5015196;28;19991;-58
2021/10/20 03:41:16;;;;;;;;;;;19.80;59.90;;;;;;5015120;28;19926;-58
2021/10/20 03:43:43;;;;;;;;;;;19.80;59.90;;;;;;5015659;28;20380;-57
2021/10/20 03:46:10;;;;;;;;;;;19.80;59.90;;;;;;5002292;28;19996;-58
2021/10/20 03:48:37;;;;;;;;;;;19.80;59.80;;;;;;4999141;28;19961;-57
2021/10/20 03:51:04;;;;;;;;;;;19.80;59.80;;;;;;5010314;28;19926;-57
2021/10/20 03:53:32;;;;;;;;;;;19.80;59.80;;;;;;5013740;28;19926;-58
2021/10/20 03:55:59;;;;;;;;;;;19.80;59.80;;;;;;5005638;28;19996;-58
2021/10/20 03:58:26;;;;;;;;;;;19.80;60.10;;;;;;4998695;28;20378;-57
2021/10/20 04:00:54;;;;;;;;;;;19.80;59.80;;;;;;4998737;28;19926;-57
2021/10/20 04:03:21;;;;;;;;;;;19.80;59.80;;;;;;4998588;28;19926;-57
2021/10/20 04:05:49;;;;;;;;;;;19.80;59.80;;;;;;4998894;28;20317;-58
2021/10/20 04:08:16;;;;;;;;;;;19.80;59.80;;;;;;5008566;28;19926;-58
2021/10/20 04:10:43;;;;;;;;;;;19.80;59.80;;;;;;5014824;28;20331;-58
2021/10/20 04:13:10;;;;;;;;;;;19.80;59.80;;;;;;5013761;28;19929;-56
2021/10/20 04:15:37;;;;;;;;;;;19.80;59.80;;;;;;5014505;28;19929;-59
2021/10/20 04:18:04;;;;;;;;;;;19.80;59.80;;;;;;5014278;28;19969;-57
2021/10/20 04:20:31;;;;;;;;;;;19.80;59.80;;;;;;5015236;28;20295;-57
2021/10/20 04:22:58;;;;;;;;;;;19.80;59.80;;;;;;5014037;28;19926;-58
2021/10/20 04:25:25;;;;;;;;;;;19.80;59.80;;;;;;5014051;28;19972;-57
2021/10/20 04:27:52;;;;;;;;;;;19.80;59.80;;;;;;4996635;28;20358;-57
2021/10/20 04:30:20;;;;;;;;;;;19.80;59.80;;;;;;5013077;28;19952;-58
2021/10/20 04:32:47;;;;;;;;;;;19.80;59.80;;;;;;4998040;28;19930;-58
2021/10/20 04:35:14;;;;;;;;;;;19.80;59.80;;;;;;4997930;28;20029;-58
2021/10/20 04:37:41;;;;;;;;;;;19.80;59.80;;;;;;5012985;28;19952;-57
2021/10/20 04:40:09;;;;;;;;;;;19.80;59.80;;;;;;5014254;28;20361;-58
2021/10/20 04:42:38;;;;;;;;;;;19.80;59.80;;;;;;5001290;28;20020;-56
2021/10/20 04:45:05;;;;;;;;;;;19.80;59.80;;;;;;5010213;28;19972;-57
2021/10/20 04:47:32;;;;;;;;;;;19.80;59.80;;;;;;5002564;28;19934;-58
2021/10/20 04:50:00;;;;;;;;;;;19.80;59.80;;;;;;4996606;28;19926;-58
2021/10/20 04:52:30;;;;;;;;;;;19.80;59.80;;;;;;5007290;28;19930;-58
2021/10/20 04:54:58;;;;;;;;;;;19.80;59.80;;;;;;5004574;28;20440;-57
2021/10/20 04:57:26;;;;;;;;;;;19.80;59.80;;;;;;4997843;28;20370;-58
2021/10/20 04:59:53;;;;;;;;;;;19.80;59.80;;;;;;5004949;28;20459;-57
2021/10/20 05:02:20;;;;;;;;;;;19.80;59.80;;;;;;5011107;28;19926;-57
2021/10/20 05:04:47;;;;;;;;;;;19.80;59.80;;;;;;5013768;28;20332;-57
2021/10/20 05:07:14;;;;;;;;;;;19.80;59.80;;;;;;5012696;28;20025;-57
2021/10/20 05:09:41;;;;;;;;;;;19.80;59.80;;;;;;5013459;28;19932;-57
2021/10/20 05:12:08;;;;;;;;;;;19.80;59.80;;;;;;5013938;28;19932;-57
2021/10/20 05:14:35;;;;;;;;;;;19.80;59.80;;;;;;5011771;28;20009;-58
2021/10/20 05:17:02;;;;;;;;;;;19.80;59.80;;;;;;5005540;28;19961;-58
2021/10/20 05:19:29;;;;;;;;;;;19.80;59.80;;;;;;4996761;28;19929;-57
2021/10/20 05:21:56;;;;;;;;;;;19.80;59.80;;;;;;4996884;28;19925;-55
2021/10/20 05:24:23;;;;;;;;;;;19.70;59.70;;;;;;4995477;28;20349;-57
2021/10/20 05:26:54;;;;;;;;;;;19.70;59.70;;;;;;4995814;28;19926;-57
2021/10/20 05:29:21;;;;;;;;;;;19.70;59.70;;;;;;5013052;28;19971;-57
2021/10/20 05:31:48;;;;;;;;;;;19.80;59.80;;;;;;4996717;28;19945;-58
2021/10/20 05:34:15;;;;;;;;;;;19.80;59.80;;;;;;5003012;28;20293;-57
2021/10/20 05:36:42;;;;;;;;;;;19.80;59.80;;;;;;5012337;28;20326;-57
2021/10/20 05:39:10;;;;;;;;;;;19.80;59.80;;;;;;5009953;28;19933;-57
2021/10/20 05:41:37;;;;;;;;;;;19.80;59.80;;;;;;5000058;28;19926;-58
2021/10/20 05:44:04;;;;;;;;;;;19.80;59.80;;;;;;5008256;28;20402;-58
2021/10/20 05:46:31;;;;;;;;;;;19.80;59.70;;;;;;5009991;28;20417;-57
2021/10/20 05:48:58;;;;;;;;;;;19.80;59.70;;;;;;5011592;28;20334;-57
2021/10/20 05:51:25;;;;;;;;;;;19.80;59.70;;;;;;5012360;28;19965;-57
2021/10/20 05:53:52;;;;;;;;;;;19.80;59.70;;;;;;5005653;28;19972;-58
2021/10/20 05:56:19;;;;;;;;;;;19.80;59.70;;;;;;5011994;28;19929;-58
2021/10/20 05:58:46;;;;;;;;;;;19.80;59.70;;;;;;5012924;28;19925;-57
2021/10/20 06:01:13;;;;;;;;;;;19.80;59.70;;;;;;5007158;28;20337;-58
2021/10/20 06:03:40;;;;;;;;;;;19.80;59.60;;;;;;5006955;28;20377;-57
2021/10/20 06:06:07;;;;;;;;;;;19.80;59.60;;;;;;5001971;28;19925;-58
2021/10/20 06:08:34;;;;;;;;;;;19.80;59.60;;;;;;5009906;28;19926;-58
2021/10/20 06:11:01;;;;;;;;;;;19.80;59.60;;;;;;4996148;28;19929;-58
2021/10/20 06:13:28;;;;;;;;;;;19.80;59.60;;;;;;4997572;28;19969;-57
2021/10/20 06:15:56;;;;;;;;;;;19.80;59.60;;;;;;5011245;28;19925;-58
2021/10/20 06:18:23;;;;;;;;;;;19.80;59.60;;;;;;4994695;28;19930;-57
2021/10/20 06:20:50;;;;;;;;;;;19.80;59.60;;;;;;4995561;28;19932;-58
2021/10/20 06:23:18;;;;;;;;;;;19.90;60.30;;;;;;5009621;28;20328;-58
2021/10/20 06:25:45;;;;;;;;;;;19.90;59.60;;;;;;4995356;28;19926;-58
2021/10/20 06:28:12;;;;;;;;;;;19.90;59.60;;;;;;4995982;28;19926;-57
2021/10/20 06:30:39;;;;;;;;;;;19.90;59.60;;;;;;5010042;28;19929;-58
2021/10/20 06:33:06;;;;;;;;;;;19.90;59.60;;;;;;5011798;28;19994;-56
2021/10/20 06:35:33;;;;;;;;;;;19.90;59.60;;;;;;5012199;28;19972;-57
2021/10/20 06:38:00;;;;;;;;;;;19.90;59.60;;;;;;5010741;28;19964;-57
2021/10/20 06:40:27;;;;;;;;;;;19.90;59.60;;;;;;5000461;28;20409;-57
2021/10/20 06:42:54;;;;;;;;;;;20.00;59.70;;;;;;5006528;28;19991;-58
2021/10/20 06:45:21;;;;;;;;;;;20.00;59.80;;;;;;5003263;28;19957;-57
2021/10/20 06:47:48;;;;;;;;;;;20.00;59.80;;;;;;5003984;28;19960;-58
2021/10/20 06:50:16;;;;;;;;;;;20.00;59.80;;;;;;5012254;28;19932;-57
2021/10/20 06:52:43;;;;;;;;;;;20.00;59.80;;;;;;5007884;28;19926;-57
2021/10/20 06:55:11;;;;;;;;;;;20.00;59.80;;;;;;4998275;28;19925;-56
2021/10/20 06:57:39;;;;;;;;;;;20.00;59.90;;;;;;5010464;28;19969;-58
2021/10/20 07:00:06;;;;;;;;;;;20.00;60.10;;;;;;5004213;28;19976;-58
2021/10/20 07:02:33;;;;;;;;;;;20.00;60.30;;;;;;5012173;28;19957;-58
2021/10/20 07:05:01;;;;;;;;;;;20.00;60.00;;;;;;4999111;28;19926;-58
2021/10/20 07:07:28;;;;;;;;;;;20.00;60.00;;;;;;5000459;28;19980;-58
2021/10/20 07:09:55;;;;;;;;;;;20.10;60.20;;;;;;5016146;28;19926;-57
2021/10/20 07:12:22;;;;;;;;;;;20.10;60.30;;;;;;5015554;28;20012;-58
2021/10/20 07:14:49;;;;;;;;;;;20.10;60.20;;;;;;4998178;28;19933;-57
2021/10/20 07:17:16;;;;;;;;;;;20.10;60.10;;;;;;5015038;28;20444;-57
2021/10/20 07:19:43;;;;;;;;;;;20.10;60.10;;;;;;4997929;28;20016;-58
2021/10/20 07:22:10;;;;;;;;;;;20.10;60.20;;;;;;4998979;28;20329;-58
2021/10/20 07:24:37;;;;;;;;;;;20.10;60.20;;;;;;4999331;28;19926;-57
2021/10/20 07:27:04;;;;;;;;;;;20.10;60.20;;;;;;4999136;28;19980;-57
2021/10/20 07:29:31;;;;;;;;;;;20.10;59.80;;;;;;4999113;28;20405;-57
2021/10/20 07:31:59;;;;;;;;;;;20.10;59.70;;;;;;4999297;28;19926;-57
2021/10/20 07:34:26;;;;;;;;;;;20.10;59.70;;;;;;5010818;28;19926;-57
2021/10/20 07:36:55;;;;;;;;;;;20.10;59.70;;;;;;5015483;28;20333;-57
2021/10/20 07:39:22;;;;;;;;;;;20.10;59.60;;;;;;5005317;28;19969;-58
2021/10/20 07:41:50;;;;;;;;;;;20.10;59.70;;;;;;5007171;28;19934;-57
2021/10/20 07:44:16;;;;;;;;;;;20.10;59.70;;;;;;5013996;28;19925;-56
2021/10/20 07:46:43;;;;;;;;;;;20.10;59.80;;;;;;5007895;28;19926;-58
2021/10/20 07:49:10;;;;;;;;;;;20.10;59.80;;;;;;4999109;28;19965;-57
2021/10/20 07:51:37;;;;;;;;;;;20.10;59.80;;;;;;5003212;28;19988;-56
2021/10/20 07:54:04;;;;;;;;;;;20.10;59.90;;;;;;5014846;28;20290;-55
2021/10/20 07:56:36;;;;;;;;;;;20.10;59.90;;;;;;5015893;28;19933;-58
2021/10/20 07:59:03;;;;;;;;;;;20.10;59.90;;;;;;5017517;28;20344;-56
2021/10/20 08:01:30;;;;;;;;;;;20.10;59.90;;;;;;5014955;28;19933;-58
2021/10/20 08:03:57;;;;;;;;;;;20.10;60.00;;;;;;5014337;28;19925;-58
2021/10/20 08:06:24;;;;;;;;;;;20.10;60.00;;;;;;5014877;28;19925;-57
2021/10/20 08:08:51;;;;;;;;;;;20.10;60.00;;;;;;4998386;28;20328;-56
2021/10/20 08:11:18;;;;;;;;;;;20.10;60.00;;;;;;4997626;28;19925;-57
2021/10/20 08:13:45;;;;;;;;;;;20.10;60.00;;;;;;5014777;28;19976;-57
2021/10/20 08:16:12;;;;;;;;;;;20.10;60.00;;;;;;5002143;28;20303;-58
2021/10/20 08:18:39;;;;;;;;;;;20.10;60.00;;;;;;4997950;28;20020;-56
2021/10/20 08:21:07;;;;;;;;;;;20.10;60.00;;;;;;5026719;28;19925;-58
2021/10/20 08:23:34;;;;;;;;;;;20.10;60.00;;;;;;5013467;28;19975;-55
2021/10/20 08:26:01;;;;;;;;;;;20.20;60.00;;;;;;5013095;28;19926;-57
2021/10/20 08:28:28;;;;;;;;;;;20.20;60.00;;;;;;5001246;28;19933;-57
2021/10/20 08:30:55;;;;;;;;;;;20.20;60.00;;;;;;4998274;28;19972;-58
2021/10/20 08:33:22;;;;;;;;;;;20.20;60.00;;;;;;4998089;28;19976;-57
2021/10/20 08:35:50;;;;;;;;;;;20.20;60.00;;;;;;5008413;28;19934;-57
2021/10/20 08:38:17;;;;;;;;;;;20.20;60.00;;;;;;5014170;28;19976;-57
2021/10/20 08:40:47;;;;;;;;;;;20.20;60.00;;;;;;5014191;28;19926;-57
2021/10/20 08:43:15;;;;;;;;;;;20.20;59.90;;;;;;5014375;28;19968;-54
2021/10/20 08:45:43;;;;;;;;;;;20.20;59.90;;;;;;5013355;28;19925;-56
2021/10/20 08:48:11;;;;;;;;;;;20.20;59.90;;;;;;5012670;28;20348;-57
2021/10/20 08:50:38;;;;;;;;;;;20.20;59.90;;;;;;5013698;28;19960;-57
2021/10/20 08:53:05;;;;;;;;;;;20.20;59.90;;;;;;5009268;28;19933;-56
2021/10/20 08:55:33;;;;;;;;;;;20.20;59.80;;;;;;4997663;28;19996;-56
2021/10/20 08:58:00;;;;;;;;;;;20.20;59.80;;;;;;4997316;28;20440;-57
2021/10/20 09:00:28;;;;;;;;;;;20.20;59.80;;;;;;4997679;28;19940;-56
2021/10/20 09:02:55;;;;;;;;;;;20.20;59.80;;;;;;4998409;28;19925;-58
2021/10/20 09:05:23;;;;;;;;;;;20.20;59.80;;;;;;4996583;28;20285;-57
2021/10/20 09:07:53;;;;;;;;;;;20.20;59.80;;;;;;5013661;28;19957;-58
2021/10/20 09:10:25;;;;;;;;;;;20.20;59.80;;;;;;4996079;28;19926;-56
2021/10/20 09:12:54;;;;;;;;;;;20.20;59.80;;;;;;4996110;28;19953;-57
2021/10/20 09:15:23;;;;;;;;;;;20.20;59.80;;;;;;4995924;28;20379;-56
2021/10/20 09:17:50;;;;;;;;;;;20.20;59.70;;;;;;5004181;28;19925;-58
2021/10/20 09:20:34;;;;;;;;;;;20.20;59.70;;;;;;4996888;28;19926;-57
2021/10/20 09:23:02;;;;;;;;;;;20.20;59.70;;;;;;5013254;28;20032;-56
2021/10/20 09:25:37;;;;;;;;;;;20.20;59.70;;;;;;4996110;28;19979;-56
2021/10/20 09:28:06;;;;;;;;;;;20.20;59.70;;;;;;5013597;28;19988;-56
2021/10/20 09:30:33;;;;;;;;;;;20.20;59.60;;;;;;4996466;28;19976;-56
2021/10/20 09:33:00;;;;;;;;;;;20.20;59.60;;;;;;4997012;28;19944;-56
2021/10/20 09:35:28;;;;;;;;;;;20.30;60.40;;;;;;5011690;28;19957;-57
2021/10/20 09:37:58;;;;;;;;;;;20.30;59.70;;;;;;5013113;28;19932;-56
2021/10/20 09:40:31;;;;;;;;;;;20.30;59.70;;;;;;5013384;28;19979;-56
2021/10/20 09:42:59;;;;;;;;;;;20.30;59.70;;;;;;5013344;28;19990;-57
2021/10/20 09:45:31;;;;;;;;;;;20.30;59.70;;;;;;5013031;28;19925;-55
2021/10/20 09:48:08;;;;;;;;;;;20.30;59.70;;;;;;5012890;28;19925;-55
2021/10/20 09:50:52;;;;;;;;;;;20.30;59.60;;;;;;4999460;28;19957;-56
2021/10/20 09:53:19;;;;;;;;;;;20.30;59.70;;;;;;4997009;28;19992;-57
2021/10/20 09:55:46;;;;;;;;;;;20.30;59.60;;;;;;4996501;28;20342;-57
2021/10/20 09:58:14;;;;;;;;;;;20.30;59.60;;;;;;4996780;28;19980;-57
2021/10/20 10:00:42;;;;;;;;;;;20.30;60.30;;;;;;5008629;28;19975;-56
2021/10/20 10:03:10;;;;;;;;;;;20.30;59.60;;;;;;5001733;28;19936;-57
2021/10/20 10:05:37;;;;;;;;;;;20.30;59.60;;;;;;5006043;28;19925;-57
2021/10/20 10:08:05;;;;;;;;;;;20.30;59.60;;;;;;5003915;28;19925;-56
2021/10/20 10:10:34;;;;;;;;;;;20.30;59.60;;;;;;5004605;28;19984;-55
2021/10/20 10:13:12;;;;;;;;;;;20.30;59.60;;;;;;5012850;28;19989;-46
2021/10/20 10:15:40;;;;;;;;;;;20.30;59.50;;;;;;5005840;28;19926;-56
2021/10/20 10:18:09;;;;;;;;;;;20.40;60.60;;;;;;5005318;28;20453;-58
2021/10/20 10:20:40;;;;;;;;;;;20.40;60.30;;;;;;4996555;28;19929;-57
2021/10/20 10:23:16;;;;;;;;;;;20.40;60.20;;;;;;5002548;28;19929;-55
2021/10/20 10:25:43;;;;;;;;;;;20.40;60.10;;;;;;5006377;28;19926;-58
2021/10/20 10:28:27;;;;;;;;;;;20.40;60.00;;;;;;5001586;28;19936;-56
2021/10/20 10:31:08;;;;;;;;;;;20.40;60.00;;;;;;5012485;28;19932;-57
2021/10/20 10:33:39;;;;;;;;;;;20.40;60.00;;;;;;5011215;28;19933;-58
2021/10/20 10:36:06;;;;;;;;;;;20.40;60.00;;;;;;5012543;28;19961;-57
2021/10/20 10:38:42;;;;;;;;;;;20.40;60.00;;;;;;5011147;28;19945;-57
2021/10/20 10:41:22;;;;;;;;;;;20.40;60.00;;;;;;5011187;28;19972;-58
2021/10/20 10:44:11;;;;;;;;;;;20.40;60.00;;;;;;5003817;28;19991;-56
2021/10/20 10:46:52;;;;;;;;;;;20.40;60.00;;;;;;5012222;28;20377;-57
2021/10/20 10:49:28;;;;;;;;;;;20.40;60.00;;;;;;5012133;28;19979;-57
2021/10/20 10:52:17;;;;;;;;;;;20.40;60.00;;;;;;5001741;28;19926;-57
2021/10/20 10:55:02;;;;;;;;;;;20.40;60.00;;;;;;4995917;28;20393;-57
2021/10/20 10:57:39;;;;;;;;;;;20.40;60.00;;;;;;4996482;28;20456;-57
2021/10/20 11:00:09;;;;;;;;;;;20.40;60.80;;;;;;5010798;28;19926;-58
2021/10/20 11:02:39;;;;;;;;;;;20.50;60.20;;;;;;5012130;28;20360;-57
2021/10/20 11:05:07;;;;;;;;;;;20.40;60.10;;;;;;4998591;28;19929;-57
2021/10/20 11:07:35;;;;;;;;;;;20.40;60.10;;;;;;5008928;28;19968;-58
2021/10/20 11:10:03;;;;;;;;;;;20.50;60.20;;;;;;5012058;28;20373;-57
2021/10/20 11:12:30;;;;;;;;;;;20.50;60.20;;;;;;5001455;28;19926;-57
2021/10/20 11:14:57;;;;;;;;;;;20.50;60.30;;;;;;4995909;28;19976;-57
2021/10/20 11:17:24;;;;;;;;;;;20.50;60.20;;;;;;5001313;28;19957;-58
2021/10/20 11:19:51;;;;;;;;;;;20.50;60.20;;;;;;4995887;28;20009;-57
2021/10/20 11:22:19;;;;;;;;;;;20.50;60.20;;;;;;5002973;28;19976;-58
2021/10/20 11:24:47;;;;;;;;;;;20.50;60.20;;;;;;5011846;28;19925;-57
2021/10/20 11:27:15;;;;;;;;;;;20.50;60.20;;;;;;5011924;28;19925;-57
2021/10/20 11:29:42;;;;;;;;;;;20.50;60.20;;;;;;5011766;28;20333;-57
2021/10/20 11:32:11;;;;;;;;;;;20.50;60.10;;;;;;5010638;28;19987;-58
2021/10/20 11:34:39;;;;;;;;;;;20.50;60.10;;;;;;5010894;28;19929;-57
2021/10/20 11:37:07;;;;;;;;;;;20.50;60.10;;;;;;5011772;28;20444;-57
2021/10/20 11:39:34;;;;;;;;;;;20.50;60.10;;;;;;5013963;28;19968;-58
2021/10/20 11:42:02;;;;;;;;;;;20.50;60.10;;;;;;5000306;28;23633;-57
2021/10/20 11:44:29;;;;;;;;;;;20.50;60.00;;;;;;5015235;28;19976;-57
2021/10/20 11:46:57;;;;;;;;;;;20.50;60.00;;;;;;4998612;28;19937;-57
2021/10/20 11:49:25;;;;;;;;;;;20.50;60.00;;;;;;5014514;28;19925;-57
2021/10/20 11:51:52;;;;;;;;;;;20.50;60.00;;;;;;5015143;28;19929;-57
2021/10/20 11:54:20;;;;;;;;;;;20.50;59.90;;;;;;5015797;28;19968;-57
2021/10/20 11:56:51;;;;;;;;;;;20.50;59.90;;;;;;5013489;28;19960;-56
2021/10/20 11:59:22;;;;;;;;;;;20.50;59.90;;;;;;4999321;28;19992;-57
2021/10/20 12:01:50;;;;;;;;;;;20.50;59.80;;;;;;5015038;28;19963;-58
2021/10/20 12:04:18;;;;;;;;;;;20.50;59.80;;;;;;5014951;28;19980;-58
2021/10/20 12:06:49;;;;;;;;;;;20.50;59.70;;;;;;5001113;28;19926;-58
2021/10/20 12:09:17;;;;;;;;;;;20.50;59.70;;;;;;4998774;28;19933;-57
2021/10/20 12:11:44;;;;;;;;;;;20.60;59.80;;;;;;5011429;28;20440;-58
2021/10/20 12:14:13;;;;;;;;;;;20.60;59.70;;;;;;5014981;28;19961;-58
2021/10/20 12:16:41;;;;;;;;;;;20.60;59.70;;;;;;5013293;28;20008;-59
2021/10/20 12:19:10;;;;;;;;;;;20.60;59.10;;;;;;4999092;28;19926;-58
2021/10/20 12:21:38;;;;;;;;;;;20.60;59.60;;;;;;5008566;28;20539;-56
2021/10/20 12:24:06;;;;;;;;;;;20.60;59.60;;;;;;5015074;28;19926;-58
2021/10/20 12:26:34;;;;;;;;;;;20.60;59.50;;;;;;5006663;28;20334;-58
2021/10/20 12:29:02;;;;;;;;;;;20.60;59.50;;;;;;5012815;28;20373;-58
2021/10/20 12:31:29;;;;;;;;;;;20.60;59.50;;;;;;4998549;28;19925;-58
2021/10/20 12:33:57;;;;;;;;;;;20.60;59.50;;;;;;5005115;28;19925;-58
2021/10/20 12:36:26;;;;;;;;;;;20.60;59.50;;;;;;5010145;28;20337;-58
2021/10/20 12:38:53;;;;;;;;;;;20.60;59.50;;;;;;5016672;28;19947;-58
2021/10/20 12:41:22;;;;;;;;;;;20.60;59.50;;;;;;5013729;28;19925;-57
2021/10/20 12:43:50;;;;;;;;;;;20.60;59.50;;;;;;5019830;28;19933;-58
2021/10/20 12:46:33;;;;;;;;;;;20.60;59.50;;;;;;5018406;28;20020;-57
2021/10/20 12:49:00;;;;;;;;;;;20.60;59.50;;;;;;5044653;28;19926;-58
2021/10/20 12:51:30;;;;;;;;;;;20.60;59.50;;;;;;5012814;28;19944;-57
2021/10/20 12:53:58;;;;;;;;;;;20.60;59.40;;;;;;5012687;28;19948;-58
2021/10/20 12:56:26;;;;;;;;;;;20.60;59.40;;;;;;4997621;28;20380;-57
2021/10/20 12:59:05;;;;;;;;;;;20.60;59.40;;;;;;4997263;28;20370;-57
2021/10/20 13:01:32;;;;;;;;;;;20.60;59.40;;;;;;5012786;28;20439;-54
2021/10/20 13:04:01;;;;;;;;;;;20.60;59.40;;;;;;5013177;28;20142;-58
2021/10/20 13:06:29;;;;;;;;;;;20.60;59.40;;;;;;5013691;28;19972;-57
2021/10/20 13:08:56;;;;;;;;;;;20.60;59.40;;;;;;5013023;28;19926;-58
2021/10/20 13:11:25;;;;;;;;;;;20.60;59.30;;;;;;5012584;28;19930;-57
2021/10/20 13:14:00;;;;;;;;;;;20.60;59.30;;;;;;5013180;28;19932;-57
2021/10/20 13:16:27;;;;;;;;;;;20.60;59.30;;;;;;5012899;28;19932;-57
2021/10/20 13:18:55;;;;;;;;;;;20.60;59.30;;;;;;5010544;28;19925;-57
2021/10/20 13:21:22;;;;;;;;;;;20.60;59.30;;;;;;5012564;28;19929;-57
2021/10/20 13:23:49;;;;;;;;;;;20.60;59.30;;;;;;4999482;28;19926;-57
2021/10/20 13:26:18;;;;;;;;;;;20.60;59.30;;;;;;4997237;28;19969;-58
2021/10/20 13:28:45;;;;;;;;;;;20.60;59.30;;;;;;5027950;28;19933;-57
2021/10/20 13:31:12;;;;;;;;;;;20.60;59.30;;;;;;5000043;28;20337;-57
2021/10/20 13:33:39;;;;;;;;;;;20.60;59.30;;;;;;5008190;28;20267;-57
2021/10/20 13:36:11;;;;;;;;;;;20.60;59.30;;;;;;5011982;28;19932;-56
2021/10/20 13:38:38;;;;;;;;;;;20.60;59.30;;;;;;5013435;28;20302;-57
2021/10/20 13:41:05;;;;;;;;;;;20.60;59.30;;;;;;5004608;28;20320;-57
2021/10/20 13:43:32;;;;;;;;;;;20.60;59.30;;;;;;4997076;28;20428;-57
2021/10/20 13:46:02;;;;;;;;;;;20.60;59.30;;;;;;4997136;28;19973;-57
2021/10/20 13:48:29;;;;;;;;;;;20.60;59.30;;;;;;4997025;28;20465;-57
2021/10/20 13:50:56;;;;;;;;;;;20.60;59.20;;;;;;4996751;28;19925;-57
2021/10/20 13:53:23;;;;;;;;;;;20.60;59.30;;;;;;4996583;28;19933;-57
2021/10/20 13:55:50;;;;;;;;;;;20.60;59.20;;;;;;4996858;28;19997;-58
2021/10/20 13:58:17;;;;;;;;;;;20.60;59.20;;;;;;4998341;28;19929;-57
2021/10/20 14:00:44;;;;;;;;;;;20.60;59.20;;;;;;5012302;28;20381;-57
2021/10/20 14:03:11;;;;;;;;;;;20.60;59.20;;;;;;5012126;28;19946;-57
2021/10/20 14:05:39;;;;;;;;;;;20.60;59.30;;;;;;5013322;28;19976;-58
2021/10/20 14:08:06;;;;;;;;;;;20.60;59.30;;;;;;4995762;28;19933;-57
2021/10/20 14:10:33;;;;;;;;;;;20.60;59.30;;;;;;5011974;28;19930;-57
2021/10/20 14:13:00;;;;;;;;;;;20.60;59.30;;;;;;5011517;28;19969;-57
2021/10/20 14:15:27;;;;;;;;;;;20.60;59.30;;;;;;5013027;28;19926;-58
2021/10/20 14:17:54;;;;;;;;;;;20.60;59.30;;;;;;4995004;28;20396;-58
2021/10/20 14:20:22;;;;;;;;;;;20.60;59.30;;;;;;4996362;28;20378;-58